Time,TemperatureF,DewpointF,PressureIn,WindDirection,WindDirectionDegrees,WindSpeedMPH,WindSpeedGustMPH,Humidity,HourlyPrecipIn,Conditions,Clouds,dailyrainin,SoftwareType,DateUTC
2013-02-23 00:01:00,42.8,40.7,29.98,NNW,338,0.0,0.9,92,0.00,,,0.00,WUHU216HW,2013-02-23 05:01:00,
2013-02-23 00:06:00,43.0,40.9,29.98,SE,135,0.0,1.8,92,0.00,,,0.00,WUHU216HW,2013-02-23 05:06:00,
2013-02-23 00:11:00,43.0,40.9,29.98,East,90,0.0,1.8,92,0.00,,,0.00,WUHU216HW,2013-02-23 05:11:00,
2013-02-23 00:16:00,43.7,41.6,29.97,SE,135,0.0,1.6,92,0.00,,,0.00,WUHU216HW,2013-02-23 05:16:00,
2013-02-23 00:21:00,43.6,41.4,29.99,SSW,203,0.0,1.6,92,0.00,,,0.00,WUHU216HW,2013-02-23 05:21:00,
2013-02-23 00:26:00,43.7,41.6,29.98,SSW,203,0.0,0.0,92,0.00,,,0.00,WUHU216HW,2013-02-23 05:26:00,
2013-02-23 00:31:00,43.6,41.4,29.97,SSW,203,0.0,0.0,92,0.00,,,0.00,WUHU216HW,2013-02-23 05:31:00,
2013-02-23 00:36:00,43.6,41.4,29.97,SSW,203,0.0,0.0,92,0.00,,,0.00,WUHU216HW,2013-02-23 05:36:00,
2013-02-23 00:41:00,43.6,41.4,29.97,SE,135,0.4,0.4,92,0.00,,,0.00,WUHU216HW,2013-02-23 05:41:00,
2013-02-23 00:46:00,43.6,41.4,29.97,SSE,158,0.0,0.4,92,0.00,,,0.00,WUHU216HW,2013-02-23 05:46:00,
2013-02-23 00:51:00,43.6,41.4,29.97,SSE,158,0.0,0.2,92,0.00,,,0.00,WUHU216HW,2013-02-23 05:51:00,
2013-02-23 00:56:00,43.6,41.4,29.96,SSE,158,0.0,0.0,92,0.00,,,0.00,WUHU216HW,2013-02-23 05:56:00,
2013-02-23 01:01:00,43.6,41.4,29.96,SSE,158,0.0,0.0,92,0.00,,,0.00,WUHU216HW,2013-02-23 06:01:00,
2013-02-23 01:06:00,43.6,41.4,29.94,SSE,158,0.0,0.0,92,0.00,,,0.00,WUHU216HW,2013-02-23 06:06:00,
2013-02-23 01:11:00,43.6,41.4,29.94,SSE,158,0.0,0.0,92,0.00,,,0.00,WUHU216HW,2013-02-23 06:11:00,
2013-02-23 01:16:00,43.7,41.6,29.94,SSE,158,0.0,0.0,92,0.00,,,0.00,WUHU216HW,2013-02-23 06:16:00,
2013-02-23 01:21:00,43.9,41.8,29.94,SSE,158,0.0,0.0,92,0.00,,,0.00,WUHU216HW,2013-02-23 06:21:00,
2013-02-23 01:26:00,43.9,41.8,29.93,SSE,158,0.0,0.0,92,0.00,,,0.00,WUHU216HW,2013-02-23 06:26:00,
2013-02-23 01:31:00,43.9,41.8,29.93,SSE,158,0.0,0.0,92,0.00,,,0.00,WUHU216HW,2013-02-23 06:31:00,
2013-02-23 01:36:00,43.9,41.5,29.93,SSE,158,0.0,0.0,91,0.00,,,0.00,WUHU216HW,2013-02-23 06:36:00,
2013-02-23 01:41:00,43.7,41.3,29.94,SSE,158,0.0,0.0,91,0.00,,,0.00,WUHU216HW,2013-02-23 06:41:00,
2013-02-23 01:46:00,43.7,41.3,29.94,SSE,158,0.0,0.0,91,0.00,,,0.00,WUHU216HW,2013-02-23 06:46:00,
2013-02-23 01:51:00,43.9,41.5,29.93,SSE,158,0.0,0.0,91,0.00,,,0.00,WUHU216HW,2013-02-23 06:51:00,
2013-02-23 01:56:00,43.7,41.3,29.94,South,180,0.0,0.0,91,0.00,,,0.00,WUHU216HW,2013-02-23 06:56:00,
2013-02-23 02:01:00,43.6,41.1,29.94,South,180,0.0,0.0,91,0.00,,,0.00,WUHU216HW,2013-02-23 07:01:00,
2013-02-23 02:06:00,43.6,41.1,29.94,South,180,0.0,0.0,91,0.00,,,0.00,WUHU216HW,2013-02-23 07:06:00,
2013-02-23 02:11:00,43.6,41.1,29.95,South,180,0.0,0.0,91,0.00,,,0.00,WUHU216HW,2013-02-23 07:11:00,
2013-02-23 02:16:00,43.6,41.1,29.95,South,180,0.0,0.0,91,0.00,,,0.00,WUHU216HW,2013-02-23 07:16:00,
2013-02-23 02:21:00,43.7,41.3,29.95,South,180,0.0,0.0,91,0.00,,,0.00,WUHU216HW,2013-02-23 07:21:00,
2013-02-23 02:26:00,43.7,41.3,29.94,South,180,0.0,0.0,91,0.00,,,0.00,WUHU216HW,2013-02-23 07:26:00,
2013-02-23 02:31:00,43.9,41.5,29.95,South,180,0.0,0.0,91,0.00,,,0.00,WUHU216HW,2013-02-23 07:31:00,
2013-02-23 02:36:00,43.9,41.5,29.94,South,180,0.0,0.0,91,0.00,,,0.00,WUHU216HW,2013-02-23 07:36:00,
2013-02-23 02:41:00,43.7,41.3,29.94,South,180,0.0,0.0,91,0.00,,,0.00,WUHU216HW,2013-02-23 07:41:00,
2013-02-23 02:46:00,43.6,41.1,29.94,South,180,0.0,0.0,91,0.00,,,0.00,WUHU216HW,2013-02-23 07:46:00,
2013-02-23 02:51:00,43.7,41.3,29.94,SSE,158,0.0,0.0,91,0.00,,,0.00,WUHU216HW,2013-02-23 07:51:00,
2013-02-23 02:56:00,43.7,41.3,29.94,SSE,158,0.0,0.0,91,0.00,,,0.00,WUHU216HW,2013-02-23 07:56:00,
2013-02-23 03:01:00,43.7,41.3,29.92,SSE,158,0.0,0.7,91,0.00,,,0.00,WUHU216HW,2013-02-23 08:01:00,
2013-02-23 03:06:00,43.7,41.3,29.91,South,180,0.0,0.7,91,0.00,,,0.00,WUHU216HW,2013-02-23 08:06:00,
2013-02-23 03:11:00,43.6,41.1,29.91,South,180,0.0,0.0,91,0.00,,,0.00,WUHU216HW,2013-02-23 08:11:00,
2013-02-23 03:16:00,43.6,41.1,29.91,South,180,0.0,0.0,91,0.00,,,0.00,WUHU216HW,2013-02-23 08:16:00,
2013-02-23 03:21:00,43.9,41.8,29.90,South,180,0.0,0.0,92,0.00,,,0.00,WUHU216HW,2013-02-23 08:21:00,
2013-02-23 03:26:00,43.9,41.5,29.89,South,180,0.0,0.0,91,0.00,,,0.00,WUHU216HW,2013-02-23 08:26:00,
2013-02-23 03:31:00,43.9,41.5,29.91,South,180,0.0,0.0,91,0.00,,,0.00,WUHU216HW,2013-02-23 08:31:00,
2013-02-23 03:36:00,43.9,41.8,29.90,South,180,0.0,0.0,92,0.00,,,0.00,WUHU216HW,2013-02-23 08:36:00,
2013-02-23 03:41:00,44.1,41.9,29.92,South,180,0.0,0.0,92,0.00,,,0.00,WUHU216HW,2013-02-23 08:41:00,
2013-02-23 03:46:00,44.3,42.1,29.90,South,180,0.0,0.0,92,0.00,,,0.00,WUHU216HW,2013-02-23 08:46:00,
2013-02-23 03:51:00,44.3,42.1,29.91,South,180,0.0,0.0,92,0.00,,,0.00,WUHU216HW,2013-02-23 08:51:00,
2013-02-23 03:56:00,44.5,42.3,29.90,South,180,0.0,0.0,92,0.00,,,0.00,WUHU216HW,2013-02-23 08:56:00,
2013-02-23 04:01:00,44.8,42.7,29.90,South,180,0.0,0.0,92,0.00,,,0.00,WUHU216HW,2013-02-23 09:01:00,
2013-02-23 04:06:00,45.0,42.8,29.90,South,180,0.0,0.0,92,0.00,,,0.00,WUHU216HW,2013-02-23 09:06:00,
2013-02-23 04:11:00,45.0,42.8,29.90,South,180,0.0,0.0,92,0.00,,,0.00,WUHU216HW,2013-02-23 09:11:00,
2013-02-23 04:16:00,45.2,42.8,29.88,SSE,158,0.0,0.7,91,0.00,,,0.00,WUHU216HW,2013-02-23 09:16:00,
2013-02-23 04:21:00,45.2,43.0,29.89,SSE,158,0.0,0.7,92,0.00,,,0.00,WUHU216HW,2013-02-23 09:21:00,
2013-02-23 04:26:00,45.4,43.2,29.87,SSE,158,0.0,0.0,92,0.00,,,0.00,WUHU216HW,2013-02-23 09:26:00,
2013-02-23 04:31:00,45.4,43.2,29.87,SE,135,0.0,0.7,92,0.00,,,0.00,WUHU216HW,2013-02-23 09:31:00,
2013-02-23 04:36:00,45.4,43.2,29.85,SE,135,0.0,0.7,92,0.00,,,0.00,WUHU216HW,2013-02-23 09:36:00,
2013-02-23 04:41:00,45.5,43.4,29.85,SE,135,0.0,0.4,92,0.00,,,0.00,WUHU216HW,2013-02-23 09:41:00,
2013-02-23 04:46:00,45.5,43.4,29.86,SE,135,0.0,0.0,92,0.00,,,0.00,WUHU216HW,2013-02-23 09:46:00,
2013-02-23 04:51:00,45.4,43.2,29.87,SE,135,0.0,0.0,92,0.00,,,0.00,WUHU216HW,2013-02-23 09:51:00,
2013-02-23 04:56:00,45.4,43.2,29.87,SE,135,0.0,0.0,92,0.00,,,0.00,WUHU216HW,2013-02-23 09:56:00,
2013-02-23 05:01:00,45.2,43.0,29.87,SE,135,0.0,0.0,92,0.00,,,0.00,WUHU216HW,2013-02-23 10:01:00,
2013-02-23 05:06:00,45.2,43.0,29.87,SE,135,0.0,0.0,92,0.00,,,0.00,WUHU216HW,2013-02-23 10:06:00,
2013-02-23 05:11:00,45.2,43.0,29.87,SE,135,0.4,0.4,92,0.00,,,0.00,WUHU216HW,2013-02-23 10:11:00,
2013-02-23 05:16:00,45.2,43.0,29.87,SE,135,0.0,0.4,92,0.00,,,0.00,WUHU216HW,2013-02-23 10:16:00,
2013-02-23 05:21:00,45.4,43.2,29.87,SE,135,0.0,0.0,92,0.00,,,0.00,WUHU216HW,2013-02-23 10:21:00,
2013-02-23 05:26:00,45.4,43.2,29.87,SE,135,0.0,0.0,92,0.00,,,0.00,WUHU216HW,2013-02-23 10:26:00,
2013-02-23 05:31:00,45.4,43.2,29.87,SE,135,0.0,0.0,92,0.00,,,0.00,WUHU216HW,2013-02-23 10:31:00,
2013-02-23 05:36:00,45.5,43.4,29.86,SW,225,0.0,0.0,92,0.00,,,0.00,WUHU216HW,2013-02-23 10:36:00,
2013-02-23 05:41:00,45.5,43.4,29.86,SSW,203,0.0,0.0,92,0.00,,,0.00,WUHU216HW,2013-02-23 10:41:00,
2013-02-23 05:46:00,45.7,43.8,29.87,SSW,203,0.0,0.0,93,0.00,,,0.00,WUHU216HW,2013-02-23 10:46:00,
2013-02-23 05:51:00,45.7,43.6,29.87,SSW,203,0.0,0.0,92,0.00,,,0.00,WUHU216HW,2013-02-23 10:51:00,
2013-02-23 05:56:00,45.5,43.4,29.84,SSW,203,0.0,0.0,92,0.00,,,0.00,WUHU216HW,2013-02-23 10:56:00,
2013-02-23 06:01:00,45.5,43.4,29.86,SSW,203,0.0,0.0,92,0.00,,,0.00,WUHU216HW,2013-02-23 11:01:00,
2013-02-23 06:06:00,45.5,43.4,29.87,SSW,203,0.0,0.0,92,0.00,,,0.00,WUHU216HW,2013-02-23 11:06:00,
2013-02-23 06:11:00,45.5,43.4,29.87,SSW,203,0.0,0.0,92,0.00,,,0.00,WUHU216HW,2013-02-23 11:11:00,
2013-02-23 06:16:00,45.7,43.8,29.86,South,180,0.0,0.2,93,0.00,,,0.00,WUHU216HW,2013-02-23 11:16:00,
2013-02-23 06:21:00,45.7,43.6,29.86,South,180,0.0,0.2,92,0.00,,,0.00,WUHU216HW,2013-02-23 11:21:00,
2013-02-23 06:26:00,45.7,43.6,29.87,SW,225,0.0,0.0,92,0.00,,,0.00,WUHU216HW,2013-02-23 11:26:00,
2013-02-23 06:31:00,45.7,43.6,29.87,WSW,248,0.0,0.2,92,0.00,,,0.00,WUHU216HW,2013-02-23 11:31:00,
2013-02-23 06:36:00,45.7,43.6,29.87,NNE,23,0.0,0.2,92,0.00,,,0.00,WUHU216HW,2013-02-23 11:36:00,
2013-02-23 06:41:00,45.7,43.6,29.87,WNW,293,0.0,0.2,92,0.00,,,0.00,WUHU216HW,2013-02-23 11:41:00,
2013-02-23 06:46:00,45.7,43.6,29.86,WNW,293,0.0,0.2,92,0.00,,,0.00,WUHU216HW,2013-02-23 11:46:00,
2013-02-23 06:51:00,45.7,43.6,29.86,WNW,293,0.4,0.4,92,0.00,,,0.00,WUHU216HW,2013-02-23 11:51:00,
2013-02-23 06:56:00,45.7,43.6,29.87,WNW,293,0.0,0.4,92,0.00,,,0.00,WUHU216HW,2013-02-23 11:56:00,
2013-02-23 07:01:00,45.7,43.6,29.87,South,180,0.2,0.9,92,0.00,,,0.00,WUHU216HW,2013-02-23 12:01:00,
2013-02-23 07:06:00,45.7,43.8,29.87,South,180,0.0,0.9,93,0.00,,,0.00,WUHU216HW,2013-02-23 12:06:00,
2013-02-23 07:11:00,45.9,44.3,29.87,South,180,0.0,0.0,94,0.00,,,0.00,WUHU216HW,2013-02-23 12:11:00,
2013-02-23 07:16:00,45.9,44.3,29.86,South,180,0.0,0.0,94,0.00,,,0.00,WUHU216HW,2013-02-23 12:16:00,
2013-02-23 07:21:00,45.9,44.3,29.87,South,180,0.0,0.0,94,0.00,,,0.00,WUHU216HW,2013-02-23 12:21:00,
2013-02-23 07:26:00,46.1,44.5,29.87,South,180,0.0,0.0,94,0.00,,,0.00,WUHU216HW,2013-02-23 12:26:00,
2013-02-23 07:31:00,45.9,44.3,29.85,South,180,0.0,0.0,94,0.00,,,0.00,WUHU216HW,2013-02-23 12:31:00,
2013-02-23 07:36:00,46.1,44.5,29.87,South,180,0.0,0.0,94,0.00,,,0.00,WUHU216HW,2013-02-23 12:36:00,
2013-02-23 07:41:00,46.1,44.5,29.87,SSE,158,0.7,0.7,94,0.00,,,0.00,WUHU216HW,2013-02-23 12:41:00,
2013-02-23 07:46:00,46.1,44.5,29.86,SSE,158,0.7,0.9,94,0.00,,,0.00,WUHU216HW,2013-02-23 12:46:00,
2013-02-23 07:51:00,46.1,44.5,29.87,SE,135,0.0,1.1,94,0.00,,,0.00,WUHU216HW,2013-02-23 12:51:00,
2013-02-23 07:56:00,46.1,44.5,29.86,SE,135,0.0,1.1,94,0.00,,,0.00,WUHU216HW,2013-02-23 12:56:00,
2013-02-23 08:01:00,46.1,44.5,29.86,SE,135,0.0,0.0,94,0.00,,,0.00,WUHU216HW,2013-02-23 13:01:00,
2013-02-23 08:06:00,45.9,44.3,29.86,SE,135,0.0,0.0,94,0.00,,,0.00,WUHU216HW,2013-02-23 13:06:00,
2013-02-23 08:11:00,45.9,44.0,29.87,SE,135,0.0,0.0,93,0.00,,,0.00,WUHU216HW,2013-02-23 13:11:00,
2013-02-23 08:16:00,45.7,43.8,29.87,SE,135,0.0,0.0,93,0.00,,,0.00,WUHU216HW,2013-02-23 13:16:00,
2013-02-23 08:21:00,45.9,44.3,29.86,SE,135,0.0,0.0,94,0.00,,,0.00,WUHU216HW,2013-02-23 13:21:00,
2013-02-23 08:26:00,45.9,44.0,29.87,SE,135,0.0,0.0,93,0.00,,,0.00,WUHU216HW,2013-02-23 13:26:00,
2013-02-23 08:31:00,45.9,44.0,29.88,SE,135,0.0,0.0,93,0.00,,,0.00,WUHU216HW,2013-02-23 13:31:00,
2013-02-23 08:36:00,46.1,44.2,29.87,SE,135,0.0,0.0,93,0.00,,,0.00,WUHU216HW,2013-02-23 13:36:00,
2013-02-23 08:41:00,46.1,44.2,29.87,SE,135,0.0,0.4,93,0.00,,,0.00,WUHU216HW,2013-02-23 13:41:00,
2013-02-23 08:46:00,45.9,44.0,29.87,SE,135,0.0,0.4,93,0.00,,,0.00,WUHU216HW,2013-02-23 13:46:00,
2013-02-23 08:51:00,45.9,44.0,29.87,SE,135,0.0,0.2,93,0.00,,,0.00,WUHU216HW,2013-02-23 13:51:00,
2013-02-23 08:56:00,46.1,44.2,29.88,SE,135,0.0,0.0,93,0.00,,,0.00,WUHU216HW,2013-02-23 13:56:00,
2013-02-23 09:01:00,46.3,44.6,29.88,SE,135,0.0,0.0,94,0.00,,,0.00,WUHU216HW,2013-02-23 14:01:00,
2013-02-23 09:06:00,46.4,44.6,29.87,SE,135,0.0,0.0,93,0.00,,,0.00,WUHU216HW,2013-02-23 14:06:00,
2013-02-23 09:11:00,46.4,44.6,29.88,SE,135,0.0,0.0,93,0.00,,,0.00,WUHU216HW,2013-02-23 14:11:00,
2013-02-23 09:16:00,46.4,44.8,29.88,SE,135,0.0,0.0,94,0.00,,,0.00,WUHU216HW,2013-02-23 14:16:00,
2013-02-23 09:21:00,46.8,44.9,29.87,SE,135,0.0,0.0,93,0.00,,,0.00,WUHU216HW,2013-02-23 14:21:00,
2013-02-23 09:26:00,46.8,44.9,29.88,SE,135,0.0,0.0,93,0.00,,,0.00,WUHU216HW,2013-02-23 14:26:00,
2013-02-23 09:31:00,47.0,45.1,29.87,SE,135,0.0,0.0,93,0.00,,,0.00,WUHU216HW,2013-02-23 14:31:00,
2013-02-23 09:36:00,47.0,45.1,29.87,SE,135,0.0,0.0,93,0.00,,,0.00,WUHU216HW,2013-02-23 14:36:00,
2013-02-23 09:41:00,47.2,45.3,29.86,SE,135,0.0,0.0,93,0.00,,,0.00,WUHU216HW,2013-02-23 14:41:00,
2013-02-23 09:46:00,47.2,45.3,29.86,SE,135,0.0,0.0,93,0.00,,,0.00,WUHU216HW,2013-02-23 14:46:00,
2013-02-23 09:51:00,47.3,45.5,29.86,SE,135,0.0,0.0,93,0.00,,,0.00,WUHU216HW,2013-02-23 14:51:00,
2013-02-23 09:56:00,47.3,45.5,29.85,SE,135,0.0,0.0,93,0.00,,,0.00,WUHU216HW,2013-02-23 14:56:00,
2013-02-23 10:01:00,47.5,45.6,29.86,SSE,158,0.0,0.0,93,0.00,,,0.00,WUHU216HW,2013-02-23 15:01:00,
2013-02-23 10:06:00,47.7,45.8,29.85,West,270,0.0,0.0,93,0.00,,,0.00,WUHU216HW,2013-02-23 15:06:00,
2013-02-23 10:11:00,47.7,45.8,29.85,West,270,0.0,0.4,93,0.00,,,0.00,WUHU216HW,2013-02-23 15:11:00,
2013-02-23 10:16:00,47.9,46.0,29.86,West,270,0.0,0.4,93,0.00,,,0.00,WUHU216HW,2013-02-23 15:16:00,
2013-02-23 10:21:00,47.9,46.0,29.85,West,270,0.0,0.0,93,0.00,,,0.00,WUHU216HW,2013-02-23 15:21:00,
2013-02-23 10:26:00,47.9,46.3,29.86,West,270,0.0,0.0,94,0.00,,,0.00,WUHU216HW,2013-02-23 15:26:00,
2013-02-23 10:31:00,47.9,46.3,29.86,SSE,158,0.0,0.4,94,0.00,,,0.00,WUHU216HW,2013-02-23 15:31:00,
2013-02-23 10:36:00,47.9,46.3,29.86,South,180,0.0,0.4,94,0.00,,,0.00,WUHU216HW,2013-02-23 15:36:00,
2013-02-23 10:41:00,47.9,46.3,29.86,South,180,0.0,0.2,94,0.00,,,0.00,WUHU216HW,2013-02-23 15:41:00,
2013-02-23 10:46:00,48.1,46.4,29.87,South,180,0.0,0.0,94,0.00,,,0.00,WUHU216HW,2013-02-23 15:46:00,
2013-02-23 10:51:00,48.2,46.6,29.87,South,180,0.0,0.0,94,0.00,,,0.00,WUHU216HW,2013-02-23 15:51:00,
2013-02-23 10:56:00,48.4,46.8,29.87,South,180,0.0,0.0,94,0.00,,,0.00,WUHU216HW,2013-02-23 15:56:00,
2013-02-23 11:01:00,48.6,47.0,29.87,SSE,158,0.0,0.0,94,0.00,,,0.00,WUHU216HW,2013-02-23 16:01:00,
2013-02-23 11:06:00,48.8,47.2,29.87,SSE,158,0.0,0.0,94,0.00,,,0.00,WUHU216HW,2013-02-23 16:06:00,
2013-02-23 11:11:00,49.0,47.4,29.87,SSE,158,0.0,0.0,94,0.00,,,0.00,WUHU216HW,2013-02-23 16:11:00,
2013-02-23 11:16:00,49.0,47.4,29.86,SSE,158,0.0,0.0,94,0.00,,,0.00,WUHU216HW,2013-02-23 16:16:00,
2013-02-23 11:21:00,49.0,47.4,29.87,South,180,0.0,0.4,94,0.00,,,0.00,WUHU216HW,2013-02-23 16:21:00,
2013-02-23 11:26:00,49.1,47.4,29.86,SW,225,0.0,0.4,94,0.00,,,0.00,WUHU216HW,2013-02-23 16:26:00,
2013-02-23 11:31:00,48.8,47.2,29.87,NNW,338,0.0,0.4,94,0.00,,,0.00,WUHU216HW,2013-02-23 16:31:00,
2013-02-23 11:36:00,48.6,47.0,29.87,WNW,293,0.0,0.2,94,0.00,,,0.00,WUHU216HW,2013-02-23 16:36:00,
2013-02-23 11:41:00,48.6,47.0,29.86,SSE,158,0.0,1.1,94,0.00,,,0.00,WUHU216HW,2013-02-23 16:41:00,
2013-02-23 11:46:00,48.6,47.0,29.86,WSW,248,0.0,1.1,94,0.00,,,0.00,WUHU216HW,2013-02-23 16:46:00,
2013-02-23 11:51:00,48.4,46.8,29.85,NE,45,0.4,0.7,94,0.00,,,0.00,WUHU216HW,2013-02-23 16:51:00,
2013-02-23 11:57:00,48.1,46.4,29.86,WSW,248,0.7,0.9,94,0.00,,,0.00,WUHU216HW,2013-02-23 16:57:00,
2013-02-23 12:02:00,48.2,46.6,29.84,South,180,1.1,1.3,94,0.00,,,0.00,WUHU216HW,2013-02-23 17:02:00,
2013-02-23 12:07:00,47.9,46.3,29.87,SE,135,0.4,1.3,94,0.00,,,0.00,WUHU216HW,2013-02-23 17:07:00,
2013-02-23 12:12:00,47.7,46.1,29.86,South,180,0.4,1.1,94,0.00,,,0.00,WUHU216HW,2013-02-23 17:12:00,
2013-02-23 12:17:00,47.7,46.1,29.85,SW,225,0.9,0.9,94,0.00,,,0.00,WUHU216HW,2013-02-23 17:17:00,
2013-02-23 12:22:00,47.3,45.7,29.84,SSW,203,1.1,1.1,94,0.00,,,0.00,WUHU216HW,2013-02-23 17:22:00,
2013-02-23 12:27:00,47.2,45.5,29.85,West,270,0.4,1.1,94,0.00,,,0.00,WUHU216HW,2013-02-23 17:27:00,
2013-02-23 12:32:00,47.3,45.7,29.84,WSW,248,0.0,0.7,94,0.00,,,0.00,WUHU216HW,2013-02-23 17:32:00,
2013-02-23 12:37:00,47.2,45.8,29.84,WNW,293,0.9,0.9,95,0.00,,,0.00,WUHU216HW,2013-02-23 17:37:00,
2013-02-23 12:42:00,47.3,46.0,29.84,SSW,203,0.0,1.3,95,0.00,,,0.00,WUHU216HW,2013-02-23 17:42:00,
2013-02-23 12:47:00,47.3,46.0,29.84,WNW,293,1.1,1.3,95,0.00,,,0.00,WUHU216HW,2013-02-23 17:47:00,
2013-02-23 12:52:00,47.2,45.8,29.84,SE,135,0.7,1.1,95,0.00,,,0.00,WUHU216HW,2013-02-23 17:52:00,
2013-02-23 12:57:00,47.2,45.8,29.84,NE,45,0.4,0.9,95,0.00,,,0.00,WUHU216HW,2013-02-23 17:57:00,
2013-02-23 13:02:00,47.2,45.8,29.84,WSW,248,0.4,0.9,95,0.00,,,0.00,WUHU216HW,2013-02-23 18:02:00,
2013-02-23 13:07:00,47.2,45.8,29.84,WSW,248,0.0,0.7,95,0.00,,,0.00,WUHU216HW,2013-02-23 18:07:00,
2013-02-23 13:12:00,47.2,45.8,29.84,SE,135,0.4,0.4,95,0.00,,,0.00,WUHU216HW,2013-02-23 18:12:00,
2013-02-23 13:17:00,47.2,45.8,29.84,SSW,203,0.0,0.7,95,0.00,,,0.00,WUHU216HW,2013-02-23 18:17:00,
2013-02-23 13:22:00,47.2,45.8,29.84,WSW,248,0.4,0.7,95,0.00,,,0.00,WUHU216HW,2013-02-23 18:22:00,
2013-02-23 13:27:00,47.2,45.8,29.83,SSE,158,0.0,1.1,95,0.00,,,0.00,WUHU216HW,2013-02-23 18:27:00,
2013-02-23 13:32:00,47.2,45.8,29.83,SSE,158,0.0,1.1,95,0.00,,,0.00,WUHU216HW,2013-02-23 18:32:00,
2013-02-23 13:37:00,47.2,45.8,29.83,WSW,248,0.0,0.9,95,0.00,,,0.00,WUHU216HW,2013-02-23 18:37:00,
2013-02-23 13:42:00,47.2,45.8,29.83,NW,315,0.4,0.9,95,0.00,,,0.00,WUHU216HW,2013-02-23 18:42:00,
2013-02-23 13:47:00,47.2,45.8,29.83,SW,225,0.0,1.1,95,0.00,,,0.00,WUHU216HW,2013-02-23 18:47:00,
2013-02-23 13:52:00,47.2,45.8,29.83,SW,225,0.0,1.1,95,0.00,,,0.00,WUHU216HW,2013-02-23 18:52:00,
2013-02-23 13:57:00,47.2,45.8,29.83,West,270,0.0,0.7,95,0.00,,,0.00,WUHU216HW,2013-02-23 18:57:00,
2013-02-23 14:02:00,47.2,45.8,29.84,West,270,0.4,0.9,95,0.00,,,0.00,WUHU216HW,2013-02-23 19:02:00,
2013-02-23 14:07:00,47.2,45.8,29.84,West,270,0.9,0.9,95,0.00,,,0.00,WUHU216HW,2013-02-23 19:07:00,
2013-02-23 14:12:00,47.2,45.8,29.84,SW,225,0.4,1.1,95,0.00,,,0.00,WUHU216HW,2013-02-23 19:12:00,
2013-02-23 14:17:00,47.2,45.8,29.83,NW,315,0.0,1.1,95,0.00,,,0.00,WUHU216HW,2013-02-23 19:17:00,
2013-02-23 14:22:00,47.2,45.8,29.83,WNW,293,0.4,0.7,95,0.00,,,0.00,WUHU216HW,2013-02-23 19:22:00,
2013-02-23 14:27:00,47.2,45.8,29.82,SE,135,0.9,0.9,95,0.00,,,0.00,WUHU216HW,2013-02-23 19:27:00,
2013-02-23 14:32:00,47.2,45.8,29.82,SE,135,0.0,1.3,95,0.00,,,0.00,WUHU216HW,2013-02-23 19:32:00,
2013-02-23 14:37:00,47.2,45.8,29.83,SSE,158,0.0,1.3,95,0.00,,,0.00,WUHU216HW,2013-02-23 19:37:00,
2013-02-23 14:42:00,47.5,46.2,29.83,SSW,203,0.0,0.0,95,0.00,,,0.00,WUHU216HW,2013-02-23 19:42:00,
2013-02-23 14:47:00,47.5,46.2,29.82,SSW,203,0.0,0.0,95,0.00,,,0.00,WUHU216HW,2013-02-23 19:47:00,
2013-02-23 14:52:00,47.7,46.4,29.81,SSW,203,0.0,0.2,95,0.00,,,0.00,WUHU216HW,2013-02-23 19:52:00,
2013-02-23 14:57:00,47.9,46.5,29.82,SSW,203,0.0,0.2,95,0.00,,,0.00,WUHU216HW,2013-02-23 19:57:00,
2013-02-23 15:02:00,47.9,46.5,29.82,SSW,203,0.0,0.0,95,0.00,,,0.00,WUHU216HW,2013-02-23 20:02:00,
2013-02-23 15:07:00,47.9,46.5,29.81,WNW,293,0.4,0.4,95,0.00,,,0.00,WUHU216HW,2013-02-23 20:07:00,
2013-02-23 15:12:00,47.7,46.4,29.81,SW,225,0.2,0.9,95,0.00,,,0.00,WUHU216HW,2013-02-23 20:12:00,
2013-02-23 15:17:00,47.7,46.4,29.81,West,270,0.0,0.9,95,0.00,,,0.00,WUHU216HW,2013-02-23 20:17:00,
2013-02-23 15:22:00,47.7,46.4,29.81,West,270,0.4,0.4,95,0.00,,,0.00,WUHU216HW,2013-02-23 20:22:00,
2013-02-23 15:27:00,47.9,46.5,29.82,SW,225,1.1,1.1,95,0.00,,,0.00,WUHU216HW,2013-02-23 20:27:00,
2013-02-23 15:32:00,47.5,46.2,29.80,East,90,0.4,1.1,95,0.00,,,0.00,WUHU216HW,2013-02-23 20:32:00,
2013-02-23 15:37:00,47.5,46.2,29.79,WSW,248,0.4,1.1,95,0.00,,,0.00,WUHU216HW,2013-02-23 20:37:00,
2013-02-23 15:42:00,47.5,46.2,29.78,South,180,0.0,1.1,95,0.00,,,0.00,WUHU216HW,2013-02-23 20:42:00,
2013-02-23 15:47:00,47.5,46.2,29.79,SSE,158,0.4,1.1,95,0.00,,,0.00,WUHU216HW,2013-02-23 20:47:00,
2013-02-23 15:52:00,47.3,46.0,29.84,WNW,293,1.1,1.1,95,0.00,,,0.00,WUHU216HW,2013-02-23 20:52:00,
2013-02-23 15:57:00,47.3,46.0,29.83,NNW,338,0.4,1.1,95,0.00,,,0.00,WUHU216HW,2013-02-23 20:57:00,
2013-02-23 16:02:00,47.3,46.0,29.82,NW,315,0.0,1.1,95,0.00,,,0.00,WUHU216HW,2013-02-23 21:02:00,
2013-02-23 16:07:00,47.3,46.0,29.82,WSW,248,0.0,0.7,95,0.00,,,0.00,WUHU216HW,2013-02-23 21:07:00,
2013-02-23 16:12:00,47.3,46.0,29.82,WSW,248,0.0,0.7,95,0.00,,,0.00,WUHU216HW,2013-02-23 21:12:00,
2013-02-23 16:17:00,47.2,45.8,29.81,WSW,248,0.0,0.4,95,0.00,,,0.00,WUHU216HW,2013-02-23 21:17:00,
2013-02-23 16:22:00,47.2,45.8,29.81,South,180,0.0,0.4,95,0.00,,,0.00,WUHU216HW,2013-02-23 21:22:00,
2013-02-23 16:27:00,47.2,45.8,29.81,South,180,0.0,0.4,95,0.00,,,0.00,WUHU216HW,2013-02-23 21:27:00,
2013-02-23 16:32:00,47.3,46.0,29.81,South,180,0.0,0.0,95,0.00,,,0.00,WUHU216HW,2013-02-23 21:32:00,
2013-02-23 16:37:00,47.2,45.8,29.82,South,180,0.0,0.0,95,0.00,,,0.00,WUHU216HW,2013-02-23 21:37:00,
2013-02-23 16:42:00,47.3,46.0,29.81,South,180,0.0,0.0,95,0.00,,,0.00,WUHU216HW,2013-02-23 21:42:00,
2013-02-23 16:47:00,47.2,45.8,29.81,South,180,0.0,0.0,95,0.00,,,0.00,WUHU216HW,2013-02-23 21:47:00,
2013-02-23 16:52:00,47.2,45.8,29.81,South,180,0.0,0.0,95,0.00,,,0.00,WUHU216HW,2013-02-23 21:52:00,
2013-02-23 16:57:00,47.2,45.8,29.81,South,180,0.0,0.0,95,0.00,,,0.00,WUHU216HW,2013-02-23 21:57:00,
2013-02-23 17:02:00,47.2,45.8,29.81,South,180,0.0,0.0,95,0.00,,,0.00,WUHU216HW,2013-02-23 22:02:00,
2013-02-23 17:07:00,47.2,45.8,29.81,South,180,0.0,0.0,95,0.00,,,0.00,WUHU216HW,2013-02-23 22:07:00,
2013-02-23 17:12:00,47.2,45.8,29.81,South,180,0.0,0.0,95,0.00,,,0.00,WUHU216HW,2013-02-23 22:12:00,
2013-02-23 17:17:00,47.2,45.8,29.80,South,180,0.0,0.0,95,0.00,,,0.00,WUHU216HW,2013-02-23 22:17:00,
2013-02-23 17:22:00,47.2,45.8,29.77,South,180,0.0,0.0,95,0.00,,,0.00,WUHU216HW,2013-02-23 22:22:00,
2013-02-23 17:27:00,47.2,45.8,29.76,South,180,0.0,0.0,95,0.00,,,0.00,WUHU216HW,2013-02-23 22:27:00,
2013-02-23 17:32:00,47.2,45.8,29.76,South,180,0.0,0.0,95,0.00,,,0.00,WUHU216HW,2013-02-23 22:32:00,
2013-02-23 17:37:00,47.2,45.8,29.75,South,180,0.0,0.0,95,0.00,,,0.00,WUHU216HW,2013-02-23 22:37:00,
2013-02-23 17:42:00,47.2,45.8,29.80,South,180,0.0,0.0,95,0.00,,,0.00,WUHU216HW,2013-02-23 22:42:00,
2013-02-23 17:47:00,47.2,45.8,29.79,South,180,0.0,0.0,95,0.00,,,0.00,WUHU216HW,2013-02-23 22:47:00,
2013-02-23 17:52:00,47.2,45.8,29.80,South,180,0.0,0.0,95,0.00,,,0.00,WUHU216HW,2013-02-23 22:52:00,
2013-02-23 17:57:00,47.0,45.6,29.79,South,180,0.0,0.7,95,0.00,,,0.00,WUHU216HW,2013-02-23 22:57:00,
2013-02-23 18:02:00,47.0,45.4,29.79,South,180,0.0,0.7,94,0.00,,,0.00,WUHU216HW,2013-02-23 23:02:00,
2013-02-23 18:07:00,46.8,45.5,29.78,South,180,0.0,0.2,95,0.00,,,0.00,WUHU216HW,2013-02-23 23:07:00,
2013-02-23 18:12:00,46.8,45.5,29.79,South,180,0.0,0.2,95,0.00,,,0.00,WUHU216HW,2013-02-23 23:12:00,
2013-02-23 18:17:00,46.8,45.2,29.79,South,180,0.0,0.0,94,0.00,,,0.00,WUHU216HW,2013-02-23 23:17:00,
2013-02-23 18:22:00,46.6,45.0,29.78,South,180,0.0,0.0,94,0.00,,,0.00,WUHU216HW,2013-02-23 23:22:00,
2013-02-23 18:27:00,46.4,44.8,29.79,South,180,0.0,0.0,94,0.00,,,0.00,WUHU216HW,2013-02-23 23:27:00,
2013-02-23 18:32:00,46.4,44.8,29.79,South,180,0.0,0.0,94,0.00,,,0.00,WUHU216HW,2013-02-23 23:32:00,
2013-02-23 18:37:00,46.4,44.8,29.79,South,180,0.0,0.0,94,0.00,,,0.00,WUHU216HW,2013-02-23 23:37:00,
2013-02-23 18:42:00,46.4,45.1,29.79,South,180,0.0,0.0,95,0.00,,,0.00,WUHU216HW,2013-02-23 23:42:00,
2013-02-23 18:47:00,46.4,44.8,29.79,South,180,0.0,0.0,94,0.00,,,0.00,WUHU216HW,2013-02-23 23:47:00,
2013-02-23 18:52:00,46.3,44.6,29.79,South,180,0.0,0.0,94,0.00,,,0.00,WUHU216HW,2013-02-23 23:52:00,
2013-02-23 18:57:00,46.3,44.6,29.79,South,180,0.0,0.0,94,0.00,,,0.00,WUHU216HW,2013-02-23 23:57:00,
2013-02-23 19:02:00,46.1,44.7,29.79,South,180,0.0,0.0,95,0.00,,,0.00,WUHU216HW,2013-02-24 00:02:00,
2013-02-23 19:07:00,45.9,44.3,29.79,South,180,0.0,0.0,94,0.00,,,0.00,WUHU216HW,2013-02-24 00:07:00,
2013-02-23 19:12:00,45.9,44.6,29.79,South,180,0.0,0.0,95,0.00,,,0.00,WUHU216HW,2013-02-24 00:12:00,
2013-02-23 19:17:00,45.7,44.1,29.79,South,180,0.0,0.0,94,0.00,,,0.00,WUHU216HW,2013-02-24 00:17:00,
2013-02-23 19:22:00,45.7,44.1,29.79,South,180,0.0,0.0,94,0.00,,,0.00,WUHU216HW,2013-02-24 00:22:00,
2013-02-23 19:27:00,45.5,43.9,29.80,South,180,0.0,0.0,94,0.00,,,0.00,WUHU216HW,2013-02-24 00:27:00,
2013-02-23 19:32:00,45.5,43.9,29.80,South,180,0.0,0.0,94,0.00,,,0.00,WUHU216HW,2013-02-24 00:32:00,
2013-02-23 19:37:00,45.7,44.1,29.81,South,180,0.0,0.0,94,0.00,,,0.00,WUHU216HW,2013-02-24 00:37:00,
2013-02-23 19:42:00,45.5,43.9,29.81,South,180,0.0,0.0,94,0.00,,,0.00,WUHU216HW,2013-02-24 00:42:00,
2013-02-23 19:47:00,45.4,43.7,29.80,South,180,0.0,0.0,94,0.00,,,0.00,WUHU216HW,2013-02-24 00:47:00,
2013-02-23 19:52:00,45.4,43.7,29.81,South,180,0.0,0.0,94,0.00,,,0.00,WUHU216HW,2013-02-24 00:52:00,
2013-02-23 19:57:00,45.2,43.6,29.79,South,180,0.0,0.0,94,0.00,,,0.00,WUHU216HW,2013-02-24 00:57:00,
2013-02-23 20:02:00,45.2,43.6,29.79,South,180,0.0,0.0,94,0.00,,,0.00,WUHU216HW,2013-02-24 01:02:00,
2013-02-23 20:07:00,45.0,43.4,29.80,South,180,0.0,0.0,94,0.00,,,0.00,WUHU216HW,2013-02-24 01:07:00,
2013-02-23 20:12:00,45.0,43.4,29.79,South,180,0.0,0.0,94,0.00,,,0.00,WUHU216HW,2013-02-24 01:12:00,
2013-02-23 20:17:00,44.8,43.2,29.80,South,180,0.0,0.0,94,0.00,,,0.00,WUHU216HW,2013-02-24 01:17:00,
2013-02-23 20:22:00,44.8,43.2,29.80,South,180,0.0,0.0,94,0.00,,,0.00,WUHU216HW,2013-02-24 01:22:00,
2013-02-23 20:27:00,44.6,43.0,29.80,South,180,0.0,0.0,94,0.00,,,0.00,WUHU216HW,2013-02-24 01:27:00,
2013-02-23 20:32:00,44.6,43.0,29.79,South,180,0.0,0.0,94,0.00,,,0.00,WUHU216HW,2013-02-24 01:32:00,
2013-02-23 20:37:00,44.5,42.8,29.80,South,180,0.0,0.0,94,0.00,,,0.00,WUHU216HW,2013-02-24 01:37:00,
2013-02-23 20:42:00,44.3,42.7,29.80,South,180,0.0,0.0,94,0.00,,,0.00,WUHU216HW,2013-02-24 01:42:00,
2013-02-23 20:47:00,44.3,42.7,29.80,South,180,0.0,0.0,94,0.00,,,0.00,WUHU216HW,2013-02-24 01:47:00,
2013-02-23 20:52:00,44.1,42.5,29.81,South,180,0.0,0.0,94,0.00,,,0.00,WUHU216HW,2013-02-24 01:52:00,
2013-02-23 20:57:00,43.9,42.3,29.80,South,180,0.0,0.0,94,0.00,,,0.00,WUHU216HW,2013-02-24 01:57:00,
2013-02-23 21:02:00,43.7,42.1,29.81,South,180,0.0,0.0,94,0.00,,,0.00,WUHU216HW,2013-02-24 02:02:00,
2013-02-23 21:07:00,43.6,41.9,29.81,South,180,0.0,0.0,94,0.00,,,0.00,WUHU216HW,2013-02-24 02:07:00,
2013-02-23 21:12:00,43.6,41.9,29.81,South,180,0.0,0.0,94,0.00,,,0.00,WUHU216HW,2013-02-24 02:12:00,
2013-02-23 21:17:00,43.6,41.9,29.81,South,180,0.0,0.0,94,0.00,,,0.00,WUHU216HW,2013-02-24 02:17:00,
2013-02-23 21:22:00,43.4,41.8,29.81,South,180,0.0,0.0,94,0.00,,,0.00,WUHU216HW,2013-02-24 02:22:00,
2013-02-23 21:27:00,43.4,41.8,29.80,South,180,0.0,0.0,94,0.00,,,0.00,WUHU216HW,2013-02-24 02:27:00,
2013-02-23 21:32:00,43.2,41.6,29.80,South,180,0.0,0.0,94,0.00,,,0.00,WUHU216HW,2013-02-24 02:32:00,
2013-02-23 21:37:00,43.0,41.4,29.80,South,180,0.0,0.0,94,0.00,,,0.00,WUHU216HW,2013-02-24 02:37:00,
2013-02-23 21:42:00,42.8,41.2,29.80,South,180,0.0,0.0,94,0.00,,,0.00,WUHU216HW,2013-02-24 02:42:00,
2013-02-23 21:47:00,42.7,41.0,29.77,South,180,0.0,0.0,94,0.00,,,0.00,WUHU216HW,2013-02-24 02:47:00,
2013-02-23 21:52:00,42.5,40.9,29.76,South,180,0.0,0.0,94,0.00,,,0.00,WUHU216HW,2013-02-24 02:52:00,
2013-02-23 21:57:00,42.5,40.9,29.77,South,180,0.0,0.0,94,0.00,,,0.00,WUHU216HW,2013-02-24 02:57:00,
2013-02-23 22:02:00,42.3,40.7,29.76,South,180,0.0,0.0,94,0.00,,,0.00,WUHU216HW,2013-02-24 03:02:00,
2013-02-23 22:07:00,42.1,40.5,29.76,South,180,0.0,0.0,94,0.00,,,0.00,WUHU216HW,2013-02-24 03:07:00,
2013-02-23 22:12:00,41.8,40.1,29.77,South,180,0.0,0.0,94,0.00,,,0.00,WUHU216HW,2013-02-24 03:12:00,
2013-02-23 22:17:00,41.8,40.1,29.77,South,180,0.0,0.0,94,0.00,,,0.00,WUHU216HW,2013-02-24 03:17:00,
2013-02-23 22:22:00,41.6,40.0,29.78,South,180,0.0,0.0,94,0.00,,,0.00,WUHU216HW,2013-02-24 03:22:00,
2013-02-23 22:27:00,41.4,39.8,29.78,South,180,0.0,0.0,94,0.00,,,0.00,WUHU216HW,2013-02-24 03:27:00,
2013-02-23 22:32:00,41.4,39.8,29.77,South,180,0.0,0.0,94,0.00,,,0.00,WUHU216HW,2013-02-24 03:32:00,
2013-02-23 22:37:00,41.4,39.8,29.76,South,180,0.0,0.0,94,0.00,,,0.00,WUHU216HW,2013-02-24 03:37:00,
2013-02-23 22:42:00,41.2,39.6,29.77,South,180,0.0,0.0,94,0.00,,,0.00,WUHU216HW,2013-02-24 03:42:00,
2013-02-23 22:47:00,41.2,39.6,29.77,South,180,0.0,0.0,94,0.00,,,0.00,WUHU216HW,2013-02-24 03:47:00,
2013-02-23 22:52:00,41.2,39.6,29.77,South,180,0.0,0.0,94,0.00,,,0.00,WUHU216HW,2013-02-24 03:52:00,
2013-02-23 22:57:00,41.4,39.8,29.78,SE,135,0.0,0.9,94,0.00,,,0.00,WUHU216HW,2013-02-24 03:57:00,
2013-02-23 23:02:00,41.4,39.8,29.78,SE,135,0.0,0.9,94,0.00,,,0.00,WUHU216HW,2013-02-24 04:02:00,
2013-02-23 23:07:00,41.4,39.8,29.77,SE,135,0.0,0.0,94,0.00,,,0.00,WUHU216HW,2013-02-24 04:07:00,
2013-02-23 23:12:00,41.2,39.6,29.81,SSE,158,0.0,0.2,94,0.00,,,0.00,WUHU216HW,2013-02-24 04:12:00,
2013-02-23 23:17:00,41.0,39.4,29.82,SSE,158,0.4,0.7,94,0.00,,,0.00,WUHU216HW,2013-02-24 04:17:00,
2013-02-23 23:22:00,41.0,39.4,29.81,SSE,158,0.0,0.7,94,0.00,,,0.00,WUHU216HW,2013-02-24 04:22:00,
2013-02-23 23:27:00,41.4,39.8,29.81,SE,135,0.4,0.4,94,0.00,,,0.00,WUHU216HW,2013-02-24 04:27:00,
2013-02-23 23:32:00,41.6,40.0,29.81,SE,135,0.4,0.4,94,0.00,,,0.00,WUHU216HW,2013-02-24 04:32:00,
2013-02-23 23:37:00,41.6,40.0,29.82,SE,135,0.2,1.1,94,0.00,,,0.00,WUHU216HW,2013-02-24 04:37:00,
2013-02-23 23:42:00,41.4,39.8,29.81,SE,135,0.0,1.1,94,0.00,,,0.00,WUHU216HW,2013-02-24 04:42:00,
2013-02-23 23:47:00,41.2,39.6,29.82,SE,135,0.0,0.0,94,0.00,,,0.00,WUHU216HW,2013-02-24 04:47:00,
2013-02-23 23:52:00,41.0,39.4,29.81,West,270,0.0,0.4,94,0.00,,,0.00,WUHU216HW,2013-02-24 04:52:00,
2013-02-23 23:57:00,40.9,39.2,29.81,West,270,0.0,0.4,94,0.00,,,0.00,WUHU216HW,2013-02-24 04:57:00,